Time;durP1;ratioP1;P1;durP2;ratioP2;P2;SDS_P1;SDS_P2;PMS_P1;PMS_P2;Temp;Humidity;BMP_temperature;BMP_pressure;BME280_temperature;BME280_humidity;BME280_pressure;Samples;Min_cycle;Max_cycle;Signal;HPM_P1;HPM_P2
2022/05/20 00:02:38;;;;;;;4.70;3.92;;;12.90;99.90;;;;;;6125565;29;20231;-67
2022/05/20 00:05:43;;;;;;;5.38;4.60;;;12.90;99.90;;;;;;6126330;29;20593;-67
2022/05/20 00:08:49;;;;;;;3.78;3.50;;;12.90;99.90;;;;;;6125502;29;20250;-68
2022/05/20 00:11:54;;;;;;;4.28;3.90;;;13.00;99.90;;;;;;6126427;29;20214;-68
2022/05/20 00:15:01;;;;;;;3.90;3.63;;;12.90;99.90;;;;;;6125835;29;20307;-69
2022/05/20 00:18:08;;;;;;;4.00;3.70;;;13.00;99.90;;;;;;6125447;29;20239;-67
2022/05/20 00:21:13;;;;;;;4.13;3.75;;;12.90;99.90;;;;;;6126180;29;20210;-68
2022/05/20 00:24:18;;;;;;;4.63;3.55;;;12.80;99.90;;;;;;6125536;29;20604;-68
2022/05/20 00:27:23;;;;;;;3.78;3.47;;;12.80;99.90;;;;;;6125380;29;20238;-67
2022/05/20 00:30:30;;;;;;;3.70;3.50;;;12.70;99.90;;;;;;6126144;29;20288;-67
2022/05/20 00:33:37;;;;;;;4.05;3.38;;;12.70;99.90;;;;;;6125312;29;20261;-68
2022/05/20 00:36:43;;;;;;;2.85;2.75;;;12.70;99.90;;;;;;6126001;29;20331;-67
2022/05/20 00:39:50;;;;;;;4.88;3.53;;;12.70;99.90;;;;;;6125422;29;20603;-67
2022/05/20 00:43:09;;;;;;;4.18;3.30;;;12.60;99.90;;;;;;6125296;29;20242;-67
2022/05/20 00:46:21;;;;;;;4.10;3.40;;;12.50;99.90;;;;;;6126070;29;20208;-67
2022/05/20 00:49:28;;;;;;;3.70;3.50;;;12.40;99.90;;;;;;6125208;29;20259;-67
2022/05/20 00:52:38;;;;;;;4.13;3.72;;;12.40;99.90;;;;;;6124936;29;20255;-67
2022/05/20 00:55:44;;;;;;;4.45;3.60;;;12.40;99.90;;;;;;6126235;29;20212;-67
2022/05/20 00:58:50;;;;;;;3.65;3.50;;;12.40;99.90;;;;;;6129698;29;20265;-67
2022/05/20 01:02:01;;;;;;;6.72;3.40;;;12.40;99.90;;;;;;6130062;29;20208;-67
2022/05/20 01:05:15;;;;;;;4.15;3.85;;;12.30;99.90;;;;;;6128862;29;20212;-68
2022/05/20 01:08:24;;;;;;;5.78;3.88;;;12.40;99.90;;;;;;6129287;29;20236;-67
2022/05/20 01:11:30;;;;;;;4.80;3.80;;;12.40;99.90;;;;;;6129846;29;20651;-67
2022/05/20 01:14:35;;;;;;;4.95;4.38;;;12.40;99.90;;;;;;6130097;29;20243;-67
2022/05/20 01:17:43;;;;;;;5.95;4.25;;;12.30;99.90;;;;;;6131036;29;20255;-68
2022/05/20 01:20:51;;;;;;;4.50;4.10;;;12.20;99.90;;;;;;6132809;29;20207;-68
2022/05/20 01:24:02;;;;;;;4.45;4.15;;;12.20;99.90;;;;;;6132809;29;20244;-68
2022/05/20 01:27:09;;;;;;;6.18;4.00;;;12.10;99.90;;;;;;6116304;29;20219;-66
2022/05/20 01:30:17;;;;;;;4.38;4.20;;;12.10;99.90;;;;;;6129549;29;20239;-66
2022/05/20 01:33:27;;;;;;;5.63;4.13;;;12.10;99.90;;;;;;6128592;29;20259;-68
2022/05/20 01:36:33;;;;;;;4.47;4.10;;;12.10;99.90;;;;;;6129590;29;20620;-67
2022/05/20 01:39:42;;;;;;;5.95;4.15;;;12.00;99.90;;;;;;6129046;29;20264;-67
2022/05/20 01:42:54;;;;;;;5.65;4.20;;;12.00;99.90;;;;;;6128291;29;20239;-66
2022/05/20 01:46:10;;;;;;;4.75;4.10;;;11.90;99.90;;;;;;6129366;29;20252;-67
2022/05/20 01:49:25;;;;;;;4.20;4.00;;;12.00;99.90;;;;;;6128591;29;20315;-67
2022/05/20 01:52:36;;;;;;;4.60;4.20;;;12.00;99.90;;;;;;6127936;29;20319;-67
2022/05/20 01:55:48;;;;;;;6.70;4.13;;;12.00;99.90;;;;;;6112110;29;20212;-67
2022/05/20 01:58:59;;;;;;;5.40;4.00;;;12.00;99.90;;;;;;6128782;29;20680;-66
2022/05/20 02:02:09;;;;;;;4.65;4.22;;;12.10;99.90;;;;;;6128372;29;20234;-69
2022/05/20 02:05:21;;;;;;;4.93;4.60;;;12.10;99.90;;;;;;6128317;29;20208;-67
2022/05/20 02:08:32;;;;;;;5.80;4.32;;;12.10;99.90;;;;;;6127737;29;20718;-67
2022/05/20 02:11:43;;;;;;;7.43;4.40;;;12.00;99.90;;;;;;6128623;29;20211;-68
2022/05/20 02:14:53;;;;;;;5.07;4.32;;;12.10;99.90;;;;;;6127761;29;20239;-67
2022/05/20 02:18:01;;;;;;;4.65;4.43;;;12.10;99.90;;;;;;6127767;29;20239;-68
2022/05/20 02:21:11;;;;;;;5.05;4.30;;;12.00;99.90;;;;;;6128761;29;20212;-67
2022/05/20 02:24:22;;;;;;;11.02;4.60;;;12.00;99.90;;;;;;6128074;29;20235;-66
2022/05/20 02:27:33;;;;;;;4.85;4.20;;;11.90;99.90;;;;;;6127837;29;20228;-67
2022/05/20 02:30:40;;;;;;;5.47;4.95;;;11.90;99.90;;;;;;6128007;29;20631;-65
2022/05/20 02:33:46;;;;;;;5.55;5.18;;;11.90;99.90;;;;;;6110138;29;20707;-66
2022/05/20 02:36:51;;;;;;;4.95;4.57;;;11.90;99.90;;;;;;6128437;29;20214;-67
2022/05/20 02:39:58;;;;;;;5.30;4.78;;;11.90;99.90;;;;;;6127226;29;20259;-67
2022/05/20 02:43:05;;;;;;;4.78;4.45;;;12.00;99.90;;;;;;6127357;29;20240;-68
2022/05/20 02:46:12;;;;;;;5.43;4.85;;;12.00;99.90;;;;;;6127953;29;20208;-67
2022/05/20 02:49:19;;;;;;;6.03;4.70;;;11.90;99.90;;;;;;6110363;29;20284;-66
2022/05/20 02:52:24;;;;;;;5.85;5.35;;;11.90;99.90;;;;;;6126476;29;20227;-66
2022/05/20 02:55:30;;;;;;;5.18;4.78;;;12.00;99.90;;;;;;6129738;29;20216;-67
2022/05/20 03:05:26;;;;;;;5.97;5.25;;;12.00;99.90;;;;;;6096306;29;20220;-67
2022/05/20 03:08:39;;;;;;;6.10;5.68;;;12.00;99.90;;;;;;6110248;29;20236;-67
2022/05/20 03:11:44;;;;;;;5.80;5.13;;;11.80;99.90;;;;;;6127563;29;20679;-67
2022/05/20 03:14:51;;;;;;;6.28;5.60;;;11.90;99.90;;;;;;6127413;29;20239;-67
2022/05/20 03:17:57;;;;;;;5.38;4.88;;;11.90;99.90;;;;;;6109681;29;20234;-68
2022/05/20 03:21:02;;;;;;;5.60;5.15;;;11.90;99.90;;;;;;6127195;29;20212;-67
2022/05/20 03:24:08;;;;;;;5.32;5.03;;;12.10;99.90;;;;;;6127335;29;20235;-67
2022/05/20 03:27:16;;;;;;;5.95;5.05;;;12.00;99.90;;;;;;6127892;29;20624;-66
2022/05/20 03:30:23;;;;;;;5.30;4.80;;;12.10;99.90;;;;;;6146179;29;20235;-67
2022/05/20 03:33:29;;;;;;;5.07;4.63;;;12.00;99.90;;;;;;6143690;29;20232;-68
2022/05/20 03:36:36;;;;;;;4.57;4.32;;;12.10;99.90;;;;;;6134373;29;20210;-66
2022/05/20 03:39:41;;;;;;;4.63;4.32;;;12.00;99.90;;;;;;6125905;29;20232;-67
2022/05/20 03:42:46;;;;;;;5.22;4.22;;;12.10;99.90;;;;;;6125254;29;20239;-66
2022/05/20 03:45:54;;;;;;;4.55;4.32;;;12.10;99.90;;;;;;6126013;29;20567;-67
2022/05/20 03:49:00;;;;;;;4.25;4.05;;;12.00;99.90;;;;;;6125878;29;20311;-68
2022/05/20 03:52:06;;;;;;;7.40;4.60;;;12.00;99.90;;;;;;6125968;29;20266;-67
2022/05/20 03:55:12;;;;;;;4.80;4.50;;;12.00;99.90;;;;;;6125321;29;20610;-68
2022/05/20 03:58:18;;;;;;;4.57;4.30;;;12.10;99.90;;;;;;6125898;29;20228;-68
2022/05/20 04:04:51;;;;;;;4.25;4.00;;;12.10;99.90;;;;;;6125808;29;20614;-66
2022/05/20 04:07:56;;;;;;;4.45;4.07;;;12.10;99.90;;;;;;6126024;29;20247;-67
2022/05/20 04:11:02;;;;;;;4.65;4.18;;;12.10;99.90;;;;;;6126057;29;20230;-68
2022/05/20 04:14:07;;;;;;;4.15;3.95;;;12.20;99.90;;;;;;6125151;29;20243;-66
2022/05/20 04:17:14;;;;;;;4.32;3.90;;;12.30;99.90;;;;;;6125906;29;20215;-67
2022/05/20 04:20:20;;;;;;;3.97;3.88;;;12.30;99.90;;;;;;6126196;29;20212;-66
2022/05/20 04:23:26;;;;;;;4.75;4.25;;;12.30;99.90;;;;;;6125089;29;20603;-67
2022/05/20 04:26:31;;;;;;;4.90;4.43;;;12.30;99.90;;;;;;6126404;29;20208;-68
2022/05/20 04:29:37;;;;;;;4.30;3.90;;;12.20;99.90;;;;;;6126013;29;20242;-67
2022/05/20 04:32:44;;;;;;;4.65;4.40;;;12.20;99.90;;;;;;6130095;29;20599;-67
2022/05/20 04:35:49;;;;;;;4.13;3.75;;;12.20;99.90;;;;;;6129175;29;20214;-66
2022/05/20 04:38:54;;;;;;;3.97;3.78;;;12.10;99.90;;;;;;6132347;29;20239;-66
2022/05/20 04:48:47;;;;;;;4.18;3.88;;;12.20;99.90;;;;;;6130306;29;20254;-68
2022/05/20 04:51:52;;;;;;;4.05;3.88;;;12.20;99.90;;;;;;6131356;29;20290;-66
2022/05/20 04:54:57;;;;;;;4.30;3.95;;;12.10;99.90;;;;;;6129925;29;20703;-67
2022/05/20 04:58:04;;;;;;;5.53;3.58;;;12.00;99.90;;;;;;6129201;29;20247;-69
2022/05/20 05:01:09;;;;;;;4.47;4.10;;;12.20;99.90;;;;;;6130098;29;20212;-67
2022/05/20 05:04:16;;;;;;;4.00;3.70;;;12.20;99.90;;;;;;6129302;29;20549;-67
2022/05/20 05:07:22;;;;;;;4.00;3.70;;;12.10;99.90;;;;;;6129742;29;20215;-66
2022/05/20 05:10:30;;;;;;;3.65;3.45;;;12.10;99.90;;;;;;6129392;29;20204;-67
2022/05/20 05:13:36;;;;;;;5.20;3.70;;;12.10;99.90;;;;;;6129357;29;20592;-67
2022/05/20 05:16:43;;;;;;;4.20;3.95;;;12.10;99.90;;;;;;6129729;29;20208;-67
2022/05/20 05:19:50;;;;;;;6.15;3.72;;;12.10;99.90;;;;;;6129521;29;20729;-68
2022/05/20 05:22:57;;;;;;;3.97;3.67;;;12.00;99.90;;;;;;6129267;29;20244;-67
2022/05/20 05:26:03;;;;;;;4.18;3.72;;;12.20;99.90;;;;;;6129699;29;20220;-67
2022/05/20 05:29:08;;;;;;;4.07;3.88;;;12.20;99.90;;;;;;6129114;29;20238;-67
2022/05/20 05:32:13;;;;;;;3.70;3.50;;;12.20;99.90;;;;;;6128997;29;20667;-67
2022/05/20 05:35:22;;;;;;;4.13;3.92;;;12.20;99.90;;;;;;6128998;29;20214;-66
2022/05/20 05:38:28;;;;;;;4.20;3.90;;;12.20;99.90;;;;;;6128871;29;20236;-67
2022/05/20 05:41:33;;;;;;;5.25;4.10;;;12.10;99.90;;;;;;6128522;29;20212;-68
2022/05/20 05:44:39;;;;;;;6.40;4.05;;;12.10;99.90;;;;;;6128893;29;20247;-67
2022/05/20 05:47:50;;;;;;;4.32;4.03;;;12.10;99.90;;;;;;6128669;29;20242;-67
2022/05/20 05:50:56;;;;;;;5.05;4.50;;;12.00;99.90;;;;;;6111936;29;20567;-67
2022/05/20 05:54:02;;;;;;;4.43;4.03;;;12.10;99.90;;;;;;6128155;29;20585;-67
2022/05/20 05:57:07;;;;;;;4.45;4.28;;;12.10;99.90;;;;;;6129458;29;20215;-67
2022/05/20 06:00:15;;;;;;;4.93;4.53;;;12.00;99.90;;;;;;6128222;29;20219;-67
2022/05/20 06:03:21;;;;;;;5.45;5.05;;;12.10;99.90;;;;;;6128109;29;20242;-68
2022/05/20 06:06:28;;;;;;;6.07;4.78;;;12.20;99.90;;;;;;6129395;29;20218;-67
2022/05/20 06:09:36;;;;;;;4.82;4.47;;;12.10;99.90;;;;;;6128372;29;20248;-67
2022/05/20 06:12:42;;;;;;;5.20;4.82;;;12.00;99.90;;;;;;6127681;29;20236;-66
2022/05/20 06:15:48;;;;;;;5.05;4.55;;;12.00;99.90;;;;;;6128433;29;20637;-67
2022/05/20 06:18:53;;;;;;;5.15;4.57;;;12.00;99.90;;;;;;6128150;29;20258;-68
2022/05/20 06:21:59;;;;;;;4.35;3.97;;;12.00;99.90;;;;;;6129284;29;20215;-67
2022/05/20 06:25:07;;;;;;;4.50;4.13;;;11.90;99.90;;;;;;6128120;29;20244;-69
2022/05/20 06:28:17;;;;;;;4.68;4.28;;;11.90;99.90;;;;;;6128351;29;20238;-67
2022/05/20 06:31:22;;;;;;;4.60;4.10;;;11.80;99.90;;;;;;6128691;29;20517;-67
2022/05/20 06:39:48;;;;;;;4.43;4.03;;;11.80;99.90;;;;;;6127708;29;20236;-67
2022/05/20 06:41:19;;;;;;;4.18;3.95;;;11.80;99.90;;;;;;6128471;29;20212;-67
2022/05/20 06:44:25;;;;;;;5.03;4.20;;;11.80;99.90;;;;;;6128254;29;20236;-70
2022/05/20 06:47:30;;;;;;;4.50;4.18;;;11.70;99.90;;;;;;6127697;29;20246;-66
2022/05/20 06:50:38;;;;;;;4.20;4.07;;;11.80;99.90;;;;;;6127710;29;20214;-69
2022/05/20 06:53:45;;;;;;;3.75;3.50;;;11.80;99.90;;;;;;6126162;29;20254;-68
2022/05/20 06:56:50;;;;;;;4.43;4.18;;;11.80;99.90;;;;;;6127619;29;20208;-67
2022/05/20 06:59:55;;;;;;;4.97;4.53;;;11.80;99.90;;;;;;6127818;29;20240;-68
2022/05/20 07:03:01;;;;;;;4.53;4.22;;;11.80;99.90;;;;;;6128084;29;20231;-69
2022/05/20 07:06:08;;;;;;;4.53;4.30;;;11.80;99.90;;;;;;6128069;29;20212;-66
2022/05/20 07:09:16;;;;;;;4.82;3.60;;;11.90;99.90;;;;;;6127147;29;20236;-67
2022/05/20 07:12:21;;;;;;;4.93;4.63;;;11.90;99.90;;;;;;6126695;29;20215;-68
2022/05/20 07:15:27;;;;;;;27.15;12.10;;;11.90;99.90;;;;;;6127492;29;20220;-68
2022/05/20 07:18:34;;;;;;;5.50;4.38;;;11.90;99.90;;;;;;6126599;29;20239;-67
2022/05/20 07:21:40;;;;;;;4.15;3.95;;;11.90;99.90;;;;;;6127556;29;20266;-69
2022/05/20 07:24:47;;;;;;;4.97;4.57;;;11.80;99.90;;;;;;6127111;29;20243;-67
2022/05/20 07:27:52;;;;;;;4.68;4.28;;;11.80;99.90;;;;;;6126491;29;20235;-69
2022/05/20 07:30:58;;;;;;;4.00;3.72;;;11.80;99.90;;;;;;6127406;29;20208;-67
2022/05/20 07:34:03;;;;;;;12.70;8.20;;;11.70;99.90;;;;;;6126690;29;20237;-67
2022/05/20 07:37:08;;;;;;;10.65;9.63;;;11.80;99.90;;;;;;6127518;29;20212;-69
2022/05/20 07:40:16;;;;;;;5.65;5.13;;;11.80;99.90;;;;;;6126335;29;20215;-68
2022/05/20 07:43:22;;;;;;;4.15;3.90;;;11.70;99.90;;;;;;6126747;29;20235;-68
2022/05/20 07:46:28;;;;;;;4.53;4.28;;;11.70;99.90;;;;;;6127762;29;20215;-68
2022/05/20 07:49:33;;;;;;;4.72;4.30;;;11.80;99.90;;;;;;6126434;29;20243;-68
2022/05/20 07:56:08;;;;;;;3.70;3.47;;;11.80;99.90;;;;;;6127317;29;20220;-68
2022/05/20 07:59:16;;;;;;;3.83;3.53;;;11.80;99.90;;;;;;6126381;29;20730;-66
2022/05/20 08:02:27;;;;;;;4.60;4.30;;;11.80;99.90;;;;;;6126291;29;20592;-68
2022/05/20 08:05:35;;;;;;;4.93;4.35;;;11.80;99.90;;;;;;6126569;29;20208;-69
2022/05/20 08:08:41;;;;;;;8.23;3.70;;;11.80;99.90;;;;;;6126421;29;20236;-66
2022/05/20 08:11:48;;;;;;;3.38;3.28;;;11.90;99.90;;;;;;6127315;29;20212;-68
2022/05/20 08:14:55;;;;;;;9.45;8.40;;;11.70;99.90;;;;;;6125962;29;20243;-68
2022/05/20 08:18:01;;;;;;;4.50;4.20;;;11.70;99.90;;;;;;6126725;29;20561;-67
2022/05/20 08:21:06;;;;;;;3.75;3.65;;;11.80;99.90;;;;;;6126298;29;20211;-68
2022/05/20 08:24:14;;;;;;;3.60;3.33;;;11.80;99.90;;;;;;6126281;29;20240;-67
2022/05/20 08:27:22;;;;;;;3.75;3.45;;;11.70;99.90;;;;;;6125789;29;20238;-68
2022/05/20 08:30:28;;;;;;;4.68;4.47;;;11.70;99.90;;;;;;6126634;29;20204;-68
2022/05/20 08:33:34;;;;;;;4.68;4.35;;;11.70;99.90;;;;;;6126485;29;20577;-67
2022/05/20 08:36:39;;;;;;;3.80;3.58;;;11.60;99.90;;;;;;6126466;29;20204;-68
2022/05/20 08:39:45;;;;;;;3.70;3.50;;;11.60;99.90;;;;;;6126526;29;20250;-68
2022/05/20 08:42:53;;;;;;;3.90;3.80;;;11.60;99.90;;;;;;6127744;29;20246;-68
2022/05/20 08:45:59;;;;;;;3.55;3.45;;;11.60;99.90;;;;;;6129573;29;20230;-67
2022/05/20 08:49:07;;;;;;;3.88;2.90;;;11.60;99.90;;;;;;6137115;29;20254;-66
2022/05/20 08:52:12;;;;;;;2.92;2.92;;;11.60;99.90;;;;;;6145872;29;20304;-70
2022/05/20 08:55:18;;;;;;;3.50;2.78;;;11.60;99.90;;;;;;6147352;29;20287;-68
2022/05/20 08:58:25;;;;;;;4.22;4.00;;;11.60;99.90;;;;;;6126547;29;20235;-68
2022/05/20 09:01:33;;;;;;;3.55;3.33;;;11.70;99.90;;;;;;6126569;29;20563;-69
2022/05/20 09:04:39;;;;;;;7.63;3.42;;;11.60;99.90;;;;;;6125905;29;20622;-69
2022/05/20 09:07:59;;;;;;;3.15;2.92;;;11.60;99.90;;;;;;6125189;29;20231;-68
2022/05/20 09:11:08;;;;;;;3.10;3.00;;;11.60;99.90;;;;;;6126208;29;20572;-69
2022/05/20 09:17:46;;;;;;;5.55;5.15;;;11.70;99.90;;;;;;6127529;29;20228;-69
2022/05/20 09:20:54;;;;;;;4.25;4.13;;;11.80;99.90;;;;;;6129997;29;20208;-67
2022/05/20 09:24:05;;;;;;;4.00;3.90;;;11.90;99.90;;;;;;6129690;29;20236;-68
2022/05/20 09:27:20;;;;;;;3.67;3.38;;;11.90;99.90;;;;;;6129294;29;20559;-68
2022/05/20 09:30:38;;;;;;;3.40;3.15;;;12.00;99.90;;;;;;6129581;29;20208;-68
2022/05/20 09:34:13;;;;;;;6.47;3.97;;;12.00;99.90;;;;;;6128985;29;20236;-67
2022/05/20 09:37:21;;;;;;;3.65;3.53;;;12.10;99.90;;;;;;6128617;29;20573;-69
2022/05/20 09:40:36;;;;;;;3.30;3.20;;;12.00;99.90;;;;;;6129444;29;20333;-69
2022/05/20 09:44:01;;;;;;;3.40;3.22;;;12.10;99.90;;;;;;6128967;29;20244;-68
2022/05/20 09:47:24;;;;;;;4.85;4.45;;;12.20;99.90;;;;;;6129962;29;20208;-68
2022/05/20 09:50:33;;;;;;;4.90;4.57;;;12.30;99.90;;;;;;6128309;29;20216;-68
2022/05/20 09:53:41;;;;;;;5.50;4.20;;;12.30;99.90;;;;;;6128426;29;20263;-70
2022/05/20 09:57:03;;;;;;;4.80;4.00;;;12.30;99.90;;;;;;6129408;29;20271;-68
2022/05/20 10:00:17;;;;;;;5.18;3.60;;;12.30;99.90;;;;;;6128340;29;20218;-69
2022/05/20 10:03:31;;;;;;;3.83;3.40;;;12.30;99.90;;;;;;6128089;29;20242;-68
2022/05/20 10:06:51;;;;;;;3.75;3.53;;;12.30;99.90;;;;;;6129338;29;20557;-68
2022/05/20 10:10:03;;;;;;;4.18;3.88;;;12.30;99.90;;;;;;6111315;29;20699;-68
2022/05/20 10:13:16;;;;;;;4.55;4.20;;;12.30;99.90;;;;;;6128543;29;20238;-69
2022/05/20 10:16:32;;;;;;;6.70;5.68;;;12.30;99.90;;;;;;6128869;29;20239;-68
2022/05/20 10:19:48;;;;;;;5.32;3.70;;;12.30;99.90;;;;;;6128052;29;20254;-68
2022/05/20 10:23:01;;;;;;;4.10;3.83;;;12.30;99.90;;;;;;6127806;29;20554;-68
2022/05/20 10:26:13;;;;;;;4.97;4.07;;;12.40;99.90;;;;;;6129082;29;20234;-69
2022/05/20 10:33:02;;;;;;;5.97;5.35;;;12.50;99.90;;;;;;6129986;29;20244;-72
2022/05/20 10:36:18;;;;;;;4.43;4.22;;;12.50;99.90;;;;;;6134562;29;20327;-68
2022/05/20 10:39:52;;;;;;;6.53;3.95;;;12.50;99.90;;;;;;6133236;29;20240;-68
2022/05/20 10:43:17;;;;;;;3.83;3.63;;;12.60;99.90;;;;;;6131392;29;20251;-68
2022/05/20 10:50:01;;;;;;;4.35;4.10;;;12.70;99.90;;;;;;6111155;29;20227;-69
2022/05/20 10:53:17;;;;;;;6.43;3.95;;;12.70;99.90;;;;;;6127695;29;20244;-69
2022/05/20 10:56:40;;;;;;;4.63;4.32;;;12.60;99.90;;;;;;6128083;29;20231;-69
2022/05/20 11:00:07;;;;;;;4.95;4.55;;;12.50;99.90;;;;;;6127118;29;20236;-68
2022/05/20 11:03:35;;;;;;;5.80;4.78;;;12.50;99.90;;;;;;6127448;29;20231;-69
2022/05/20 11:07:42;;;;;;;4.03;3.85;;;12.40;99.90;;;;;;6111216;29;20219;-69
2022/05/20 11:11:08;;;;;;;4.53;4.28;;;12.40;99.90;;;;;;6054016;29;20728;-68
2022/05/20 11:14:36;;;;;;;4.07;3.72;;;12.50;99.90;;;;;;6109770;29;20262;-68
2022/05/20 11:18:24;;;;;;;4.50;4.25;;;12.50;99.90;;;;;;6126822;29;20270;-69
2022/05/20 11:21:47;;;;;;;6.82;3.97;;;12.60;99.90;;;;;;6127042;29;20212;-67
2022/05/20 11:25:12;;;;;;;5.97;4.43;;;12.60;99.90;;;;;;6126970;29;20239;-70
2022/05/20 11:28:37;;;;;;;3.72;3.53;;;12.50;99.90;;;;;;6126599;29;20236;-69
2022/05/20 11:31:49;;;;;;;4.93;4.50;;;12.50;99.90;;;;;;6127374;29;20204;-69
2022/05/20 11:35:19;;;;;;;5.72;3.78;;;12.60;99.90;;;;;;6126517;29;20232;-68
2022/05/20 11:38:58;;;;;;;3.42;3.13;;;12.60;99.90;;;;;;6126799;29;20318;-68
2022/05/20 11:42:17;;;;;;;3.70;3.35;;;12.60;99.90;;;;;;6109743;29;20204;-68
2022/05/20 11:45:34;;;;;;;4.43;4.03;;;12.60;99.90;;;;;;6125957;29;20208;-67
2022/05/20 11:49:00;;;;;;;4.15;3.90;;;12.70;99.90;;;;;;6126686;29;20244;-69
2022/05/20 11:52:49;;;;;;;3.15;3.05;;;12.60;99.90;;;;;;6129931;29;20251;-69
2022/05/20 11:55:58;;;;;;;4.65;3.72;;;12.50;99.90;;;;;;6130097;29;20212;-68
2022/05/20 11:59:09;;;;;;;4.32;3.40;;;12.50;99.90;;;;;;6127377;29;20253;-68
2022/05/20 12:02:17;;;;;;;5.10;4.53;;;12.50;99.90;;;;;;6125958;29;20208;-71
2022/05/20 12:05:25;;;;;;;4.35;4.00;;;12.50;99.90;;;;;;6126622;29;20212;-69
2022/05/20 12:08:54;;;;;;;3.63;3.33;;;12.50;99.90;;;;;;6126466;29;20240;-68
2022/05/20 12:12:25;;;;;;;3.58;3.33;;;12.40;99.90;;;;;;6122664;29;20212;-68
2022/05/20 12:15:43;;;;;;;3.80;3.50;;;12.60;99.90;;;;;;6126399;29;20212;-68
2022/05/20 12:25:48;;;;;;;3.20;3.00;;;12.70;99.90;;;;;;6126360;29;20231;-68
2022/05/20 12:28:53;;;;;;;3.65;3.30;;;12.80;99.90;;;;;;6125510;29;20603;-69
2022/05/20 12:31:59;;;;;;;3.08;2.95;;;12.80;99.90;;;;;;6126626;29;20211;-67
2022/05/20 12:35:13;;;;;;;6.60;3.10;;;12.80;99.90;;;;;;6109360;29;20246;-68
2022/05/20 12:38:25;;;;;;;3.65;3.33;;;12.70;99.90;;;;;;6125382;29;20262;-67
2022/05/20 12:41:34;;;;;;;4.30;3.22;;;12.60;99.90;;;;;;6109253;29;20236;-68
2022/05/20 12:44:40;;;;;;;3.72;2.80;;;12.60;99.90;;;;;;6125491;29;20239;-68
2022/05/20 12:47:45;;;;;;;3.03;2.92;;;12.50;99.90;;;;;;6125514;29;20251;-68
2022/05/20 12:51:01;;;;;;;3.83;3.53;;;12.40;99.90;;;;;;6126363;29;20208;-69
2022/05/20 12:54:17;;;;;;;2.85;2.75;;;12.40;99.90;;;;;;6130115;29;20608;-68
2022/05/20 12:57:26;;;;;;;2.60;2.33;;;12.50;99.90;;;;;;6129958;29;20235;-68
2022/05/20 13:00:40;;;;;;;2.63;2.53;;;12.60;99.90;;;;;;6130941;29;20212;-68
2022/05/20 13:03:46;;;;;;;2.47;2.33;;;12.60;99.90;;;;;;6112672;29;20247;-70
2022/05/20 13:06:53;;;;;;;2.53;2.25;;;12.60;99.90;;;;;;6130615;29;20208;-68
2022/05/20 13:09:59;;;;;;;2.50;2.30;;;12.60;99.90;;;;;;6129636;29;20224;-67
2022/05/20 13:13:08;;;;;;;3.90;1.85;;;12.70;99.90;;;;;;6129016;29;20231;-69
2022/05/20 13:16:17;;;;;;;2.60;2.50;;;12.60;99.90;;;;;;6130106;29;20208;-68
2022/05/20 13:19:31;;;;;;;2.25;2.15;;;12.60;99.90;;;;;;6129211;29;20311;-68
2022/05/20 13:22:50;;;;;;;2.50;2.10;;;12.60;99.90;;;;;;6129531;29;20223;-69
2022/05/20 13:25:55;;;;;;;3.72;2.83;;;12.70;99.90;;;;;;6113159;29;20210;-69
2022/05/20 13:29:09;;;;;;;2.22;2.13;;;12.70;99.90;;;;;;6129779;29;20255;-67
2022/05/20 13:32:31;;;;;;;4.80;2.20;;;12.70;99.90;;;;;;6129456;29;20222;-67
2022/05/20 13:35:41;;;;;;;2.88;2.53;;;12.70;99.90;;;;;;6130070;29;20212;-67
2022/05/20 13:38:51;;;;;;;2.25;2.15;;;12.70;99.90;;;;;;6129746;29;20252;-68
2022/05/20 13:41:57;;;;;;;2.08;1.98;;;12.70;99.90;;;;;;6130123;29;20651;-66
2022/05/20 13:45:10;;;;;;;2.53;2.33;;;12.60;99.90;;;;;;6129735;29;20671;-69
2022/05/20 13:51:49;;;;;;;5.93;2.75;;;12.60;99.90;;;;;;6130155;29;20510;-69
2022/05/20 13:55:02;;;;;;;2.40;2.10;;;12.70;99.90;;;;;;6128702;29;20265;-68
2022/05/20 13:58:10;;;;;;;2.53;2.40;;;12.80;99.90;;;;;;6128973;29;20604;-69
2022/05/20 14:01:16;;;;;;;2.47;2.40;;;12.90;99.90;;;;;;6128725;29;20235;-69
2022/05/20 14:04:31;;;;;;;9.80;2.65;;;12.90;99.90;;;;;;6128204;29;20243;-68
2022/05/20 14:07:42;;;;;;;6.47;2.17;;;13.00;99.90;;;;;;6128744;29;20228;-69
2022/05/20 14:10:52;;;;;;;4.35;2.15;;;13.00;99.90;;;;;;6129242;29;20205;-68
2022/05/20 14:14:01;;;;;;;4.85;2.15;;;12.80;99.90;;;;;;6130234;29;20250;-67
2022/05/20 14:17:09;;;;;;;5.05;2.33;;;12.90;99.90;;;;;;6131438;29;20284;-67
2022/05/20 14:20:17;;;;;;;3.63;2.05;;;12.90;99.90;;;;;;6130726;29;20242;-68
2022/05/20 14:23:22;;;;;;;2.10;2.08;;;12.90;99.90;;;;;;6141317;29;20261;-68
2022/05/20 14:26:36;;;;;;;2.53;2.03;;;12.90;99.90;;;;;;6141547;29;20652;-66
2022/05/20 14:29:44;;;;;;;2.85;1.90;;;12.90;99.90;;;;;;6134108;29;20257;-67
2022/05/20 14:32:56;;;;;;;2.00;2.00;;;12.90;99.90;;;;;;6128655;29;20236;-67
2022/05/20 14:36:05;;;;;;;2.03;1.92;;;12.80;99.90;;;;;;6128992;29;20672;-68
2022/05/20 14:39:15;;;;;;;2.45;1.63;;;12.80;99.90;;;;;;6127935;29;20262;-67
2022/05/20 14:42:29;;;;;;;3.13;1.88;;;12.80;99.90;;;;;;6110479;29;20666;-68
2022/05/20 14:45:38;;;;;;;4.55;2.17;;;12.80;99.90;;;;;;6128372;29;20213;-67
2022/05/20 14:48:45;;;;;;;1.85;1.70;;;12.80;99.90;;;;;;6127658;29;20240;-69
2022/05/20 14:52:08;;;;;;;2.30;2.10;;;12.70;99.90;;;;;;6111051;29;20230;-67
2022/05/20 14:55:22;;;;;;;1.83;1.73;;;12.80;99.90;;;;;;6110250;29;20226;-69
2022/05/20 14:58:33;;;;;;;3.08;1.83;;;12.70;99.90;;;;;;6127555;29;20248;-68
2022/05/20 15:01:40;;;;;;;1.83;1.73;;;12.60;99.90;;;;;;6127609;29;20208;-68
2022/05/20 15:04:45;;;;;;;4.05;2.08;;;12.60;99.90;;;;;;6127304;29;20231;-68
2022/05/20 15:07:59;;;;;;;1.80;1.80;;;12.60;99.90;;;;;;6126970;29;20247;-69
2022/05/20 15:11:14;;;;;;;1.88;1.77;;;12.60;99.90;;;;;;6127739;29;20212;-68
2022/05/20 15:14:21;;;;;;;1.98;1.70;;;12.60;99.90;;;;;;6126281;29;20243;-67
2022/05/20 15:17:26;;;;;;;2.20;2.10;;;12.60;99.90;;;;;;6126654;29;20204;-68
2022/05/20 15:20:36;;;;;;;2.17;2.08;;;12.60;99.90;;;;;;6127394;29;20231;-67
2022/05/20 15:23:45;;;;;;;2.10;2.03;;;12.60;99.90;;;;;;6127155;29;20258;-69
2022/05/20 15:26:51;;;;;;;1.70;1.70;;;12.60;99.90;;;;;;6127411;29;20212;-67
2022/05/20 15:29:59;;;;;;;2.00;1.95;;;12.70;99.90;;;;;;6109759;29;20244;-67
2022/05/20 15:36:29;;;;;;;4.22;1.65;;;12.70;99.90;;;;;;6127360;29;20231;-66
2022/05/20 15:39:40;;;;;;;2.90;2.00;;;12.70;99.90;;;;;;6126326;29;20247;-67
2022/05/20 15:42:45;;;;;;;7.63;2.28;;;12.70;99.90;;;;;;6126244;29;20244;-67
2022/05/20 15:45:54;;;;;;;1.70;1.65;;;12.70;99.90;;;;;;6126909;29;20214;-68
2022/05/20 15:48:59;;;;;;;1.85;1.80;;;12.70;99.90;;;;;;6126332;29;20238;-68
2022/05/20 15:52:06;;;;;;;2.08;2.00;;;12.60;99.90;;;;;;6126732;29;20212;-68
2022/05/20 15:55:18;;;;;;;1.95;1.80;;;12.70;99.90;;;;;;6125821;29;20223;-68
2022/05/20 15:58:25;;;;;;;2.22;1.92;;;12.70;99.90;;;;;;6127923;29;20235;-68
2022/05/20 16:01:32;;;;;;;2.13;1.80;;;12.60;99.90;;;;;;6129152;29;20699;-68
2022/05/20 16:04:37;;;;;;;2.70;2.30;;;12.60;99.90;;;;;;6126220;29;20251;-68
2022/05/20 16:07:43;;;;;;;1.70;1.70;;;12.60;99.90;;;;;;6125932;29;20239;-68
2022/05/20 16:10:51;;;;;;;2.35;1.80;;;12.70;99.90;;;;;;6126927;29;20231;-69
2022/05/20 16:13:57;;;;;;;3.80;1.70;;;12.60;99.90;;;;;;6126455;29;20228;-68
2022/05/20 16:17:05;;;;;;;2.00;1.75;;;12.60;99.90;;;;;;6126686;29;20208;-68
2022/05/20 16:20:13;;;;;;;2.30;2.20;;;12.60;99.90;;;;;;6125522;29;20542;-70
2022/05/20 16:23:22;;;;;;;3.15;2.20;;;12.50;99.90;;;;;;6126135;29;20244;-69
2022/05/20 16:26:37;;;;;;;2.20;1.98;;;12.50;99.90;;;;;;6128304;29;20204;-67
2022/05/20 16:29:43;;;;;;;5.07;1.65;;;12.60;99.90;;;;;;6131093;29;20239;-68
2022/05/20 16:32:50;;;;;;;6.97;5.78;;;12.70;99.90;;;;;;6130795;29;20266;-68
2022/05/20 16:35:55;;;;;;;6.90;3.85;;;12.50;99.90;;;;;;6114201;29;20208;-67
2022/05/20 16:39:01;;;;;;;3.15;3.03;;;12.70;99.90;;;;;;6113502;29;20254;-68
2022/05/20 16:42:09;;;;;;;5.10;3.00;;;12.80;99.90;;;;;;6131125;29;20246;-68
2022/05/20 16:45:15;;;;;;;3.92;3.15;;;12.70;99.90;;;;;;6130776;29;20218;-67
2022/05/20 16:48:26;;;;;;;4.35;3.53;;;12.80;99.90;;;;;;6130359;29;20235;-68
2022/05/20 16:51:33;;;;;;;2.40;2.30;;;12.70;99.90;;;;;;6130642;29;20216;-68
2022/05/20 16:54:41;;;;;;;5.40;2.45;;;12.70;99.90;;;;;;6130092;29;20247;-68
2022/05/20 17:04:36;;;;;;;3.90;2.80;;;12.50;99.90;;;;;;6130457;29;20241;-67
2022/05/20 17:07:41;;;;;;;3.50;2.72;;;12.50;99.90;;;;;;6129977;29;20533;-67
2022/05/20 17:10:48;;;;;;;2.70;2.50;;;12.50;99.90;;;;;;6130464;29;20208;-67
2022/05/20 17:13:54;;;;;;;3.65;2.30;;;12.50;99.90;;;;;;6129769;29;20232;-68
2022/05/20 17:16:59;;;;;;;2.20;2.10;;;12.50;99.90;;;;;;6130436;29;20208;-69
2022/05/20 17:20:08;;;;;;;3.25;2.60;;;12.40;99.90;;;;;;6129755;29;20231;-67
2022/05/20 17:26:42;;;;;;;2.65;2.47;;;12.40;99.90;;;;;;6113066;29;20651;-68